createdAt,value
2018-02-11T04:38:56.115Z,93672.87
2018-02-11T04:41:23.549Z,93701.25
2018-02-11T04:43:50.917Z,93694.20
2018-02-11T04:46:18.311Z,93687.50
2018-02-11T04:48:45.726Z,93626.66
2018-02-11T04:51:13.053Z,93705.61
2018-02-11T04:53:40.386Z,93700.31
2018-02-11T04:56:07.767Z,93699.94
2018-02-11T04:58:35.112Z,93693.13
2018-02-11T05:01:02.474Z,93696.44
2018-02-11T05:03:29.820Z,93680.23
2018-02-11T05:05:57.166Z,93707.47
2018-02-11T05:08:24.498Z,93690.48
2018-02-11T05:10:51.842Z,93695.52
2018-02-11T05:13:19.189Z,93698.08
2018-02-11T05:15:46.520Z,93688.41
2018-02-11T05:18:13.886Z,93698.16
2018-02-11T05:20:41.249Z,93697.59
2018-02-11T05:23:16.147Z,93709.19
2018-02-11T05:25:43.524Z,93708.27
2018-02-11T05:28:10.887Z,93697.05
2018-02-11T05:30:38.213Z,93697.64
2018-02-11T05:33:05.597Z,93706.80
2018-02-11T05:35:32.933Z,93702.48
2018-02-11T05:38:00.315Z,93661.72
2018-02-11T05:40:27.656Z,93704.47
2018-02-11T05:42:55.042Z,93716.23
2018-02-11T05:45:22.411Z,93717.34
2018-02-11T05:47:49.758Z,93700.41
2018-02-11T05:50:17.093Z,93724.89
2018-02-11T05:52:44.511Z,93726.61
2018-02-11T05:55:11.879Z,93720.59
2018-02-11T05:57:39.292Z,93714.45
2018-02-11T06:00:06.626Z,93727.53
2018-02-11T06:02:33.977Z,93729.41
2018-02-11T06:05:01.324Z,93728.17
2018-02-11T06:07:28.662Z,93718.83
2018-02-11T06:09:56.030Z,93736.75
2018-02-11T06:12:23.373Z,93738.45
2018-02-11T06:14:50.715Z,93709.45
2018-02-11T06:17:18.075Z,93740.47
2018-02-11T06:19:45.421Z,93728.44
2018-02-11T06:22:12.798Z,93732.91
2018-02-11T06:24:40.138Z,93724.83
2018-02-11T06:27:07.490Z,93722.08
2018-02-11T06:29:34.837Z,93735.77
2018-02-11T06:32:02.166Z,93730.00
2018-02-11T06:34:29.549Z,93732.73
2018-02-11T06:36:56.886Z,93734.54
2018-02-11T06:39:24.213Z,93746.31
2018-02-11T06:41:51.542Z,93720.39
2018-02-11T06:44:18.909Z,93737.04
2018-02-11T06:46:46.243Z,93746.88
2018-02-11T06:49:13.582Z,93745.42
2018-02-11T06:51:40.934Z,93755.94
2018-02-11T06:54:08.311Z,93752.92
2018-02-11T06:56:35.649Z,93747.34
2018-02-11T06:59:03.018Z,93750.36
2018-02-11T07:01:30.351Z,93728.72
2018-02-11T07:03:57.682Z,93763.98
2018-02-11T07:06:25.011Z,93756.01
2018-02-11T07:08:52.384Z,93763.05
2018-02-11T07:11:19.739Z,93745.09
2018-02-11T07:13:47.142Z,93754.64
2018-02-11T07:16:14.472Z,93754.78
2018-02-11T07:18:41.818Z,93730.79
2018-02-11T07:21:09.159Z,93749.34
2018-02-11T07:23:36.494Z,93758.84
2018-02-11T07:26:03.867Z,93761.30
2018-02-11T07:28:31.199Z,93746.10
2018-02-11T07:30:58.590Z,93773.00
2018-02-11T07:33:25.921Z,93751.34
2018-02-11T07:35:53.259Z,93769.64
2018-02-11T07:38:20.634Z,93750.50
2018-02-11T07:40:48.013Z,93753.11
2018-02-11T07:43:15.413Z,93741.96
2018-02-11T07:45:42.763Z,93760.36
2018-02-11T07:48:10.106Z,93748.31
2018-02-11T07:50:37.485Z,93771.09
2018-02-11T07:53:04.813Z,93760.36
2018-02-11T07:55:32.150Z,93754.22
2018-02-11T07:57:59.525Z,93759.09
2018-02-11T08:00:26.870Z,93768.62
2018-02-11T08:02:54.242Z,93767.67
2018-02-11T08:05:21.641Z,93768.59
2018-02-11T08:07:48.982Z,93769.72
2018-02-11T08:10:16.318Z,93752.33
2018-02-11T08:12:43.704Z,93766.24
2018-02-11T08:15:11.048Z,93766.56
2018-02-11T08:17:38.401Z,93771.74
2018-02-11T08:20:05.730Z,93759.66
2018-02-11T08:22:33.111Z,93773.86
2018-02-11T08:25:00.471Z,93791.33
2018-02-11T08:27:27.811Z,93783.23
2018-02-11T08:29:55.187Z,93786.41
2018-02-11T08:32:22.534Z,93782.58
2018-02-11T08:34:49.945Z,93789.14
2018-02-11T08:37:17.288Z,93784.81
2018-02-11T08:39:44.635Z,93782.77
2018-02-11T08:42:11.974Z,93786.67
2018-02-11T08:44:39.358Z,93752.84
2018-02-11T08:47:06.734Z,93738.58
2018-02-11T08:49:34.061Z,93785.14
2018-02-11T08:52:01.412Z,93764.84
2018-02-11T08:54:28.802Z,93789.39
2018-02-11T08:56:56.146Z,93771.02
2018-02-11T08:59:23.523Z,93780.31
2018-02-11T09:01:50.857Z,93782.77
2018-02-11T09:04:18.194Z,93800.11
2018-02-11T09:06:45.578Z,93796.39
2018-02-11T09:09:12.914Z,93805.36
2018-02-11T09:11:40.257Z,93808.31
2018-02-11T09:14:07.593Z,93786.77
2018-02-11T09:16:34.926Z,93801.42
2018-02-11T09:19:02.270Z,93797.92
2018-02-11T09:21:29.618Z,93790.11
2018-02-11T09:23:56.998Z,93806.79
2018-02-11T09:26:24.354Z,93811.31
2018-02-11T09:28:51.738Z,93806.52
2018-02-11T09:31:19.093Z,93810.74
2018-02-11T09:33:46.431Z,93808.72
2018-02-11T09:36:13.801Z,93809.34
2018-02-11T09:38:41.174Z,93807.97
2018-02-11T09:41:08.563Z,93793.52
2018-02-11T09:43:35.898Z,93815.52
2018-02-11T09:46:03.238Z,93790.48
2018-02-11T09:48:30.613Z,93817.52
2018-02-11T09:50:57.977Z,93799.21
2018-02-11T09:53:25.316Z,93798.00
2018-02-11T09:55:52.710Z,93799.69
2018-02-11T09:58:20.041Z,93806.94
2018-02-11T10:00:47.422Z,93819.78
2018-02-11T10:03:14.750Z,93815.11
2018-02-11T10:05:42.126Z,93806.47
2018-02-11T10:08:09.466Z,93823.98
2018-02-11T10:10:36.815Z,93826.75
2018-02-11T10:13:04.178Z,93827.69
2018-02-11T10:15:31.528Z,93812.77
2018-02-11T10:17:58.919Z,93817.86
2018-02-11T10:20:26.294Z,93824.36
2018-02-11T10:22:53.655Z,93828.69
2018-02-11T10:25:20.992Z,93822.26
2018-02-11T10:27:48.375Z,93824.19
2018-02-11T10:30:15.748Z,93822.52
2018-02-11T10:32:43.113Z,93830.97
2018-02-11T10:35:10.457Z,93818.97
2018-02-11T10:37:37.846Z,93811.73
2018-02-11T10:40:05.184Z,93824.75
2018-02-11T10:42:32.531Z,93815.01
2018-02-11T10:44:59.892Z,93818.61
2018-02-11T10:47:27.229Z,93833.63
2018-02-11T10:49:54.563Z,93821.81
2018-02-11T10:52:21.934Z,93817.77
2018-02-11T10:54:49.318Z,93827.09
2018-02-11T10:57:16.650Z,93798.72
2018-02-11T10:59:44.014Z,93832.27
2018-02-11T11:02:11.354Z,93825.39
2018-02-11T11:04:38.697Z,93813.81
2018-02-11T11:07:06.056Z,93820.41
2018-02-11T11:09:33.395Z,93830.95
2018-02-11T11:12:00.726Z,93827.25
2018-02-11T11:14:28.067Z,93829.94
2018-02-11T11:16:55.416Z,93809.41
2018-02-11T11:19:22.798Z,93827.56
2018-02-11T11:21:50.182Z,93838.81
2018-02-11T11:24:17.524Z,93842.25
2018-02-11T11:26:44.858Z,93848.25
2018-02-11T11:29:12.245Z,93719.47
2018-02-11T11:31:39.642Z,93832.36
2018-02-11T11:34:06.985Z,93837.16
2018-02-11T11:36:34.321Z,93843.59
2018-02-11T11:41:35.026Z,93808.19
2018-02-11T11:44:02.386Z,93818.83
2018-02-11T11:46:29.746Z,93833.20
2018-02-11T11:48:57.080Z,93850.75
2018-02-11T11:51:24.422Z,93839.52
2018-02-11T11:53:51.803Z,93843.88
2018-02-11T11:56:19.190Z,93820.97
2018-02-11T11:58:46.580Z,93856.23
2018-02-11T12:01:13.914Z,93849.64
2018-02-11T12:03:41.243Z,93857.02
2018-02-11T12:06:08.611Z,93840.60
2018-02-11T12:08:35.967Z,93839.66
2018-02-11T12:11:03.297Z,93856.66
2018-02-11T12:13:30.670Z,93845.12
2018-02-11T12:15:58.067Z,93849.61
2018-02-11T12:18:25.399Z,93864.73
2018-02-11T12:20:52.745Z,93852.77
2018-02-11T12:23:20.082Z,93859.67
2018-02-11T12:25:47.430Z,93814.94
2018-02-11T12:28:14.772Z,93862.59
2018-02-11T12:30:42.164Z,93863.44
2018-02-11T12:33:09.555Z,93852.61
2018-02-11T12:35:36.962Z,93848.53
2018-02-11T12:38:04.345Z,93859.36
2018-02-11T12:40:31.680Z,93854.04
2018-02-11T12:42:59.013Z,93855.66
2018-02-11T12:45:26.358Z,93859.58
2018-02-11T12:47:53.733Z,93861.39
2018-02-11T12:50:21.069Z,93869.72
2018-02-11T12:52:48.450Z,93862.56
2018-02-11T12:55:15.792Z,93842.83
2018-02-11T12:57:43.186Z,93844.98
2018-02-11T13:00:10.530Z,93865.53
2018-02-11T13:02:37.907Z,93868.00
2018-02-11T13:05:06.329Z,93866.73
2018-02-11T13:07:33.670Z,93865.95
2018-02-11T13:10:01.411Z,93852.56
2018-02-11T13:12:28.418Z,93868.41
2018-02-11T13:14:55.755Z,93856.58
2018-02-11T13:17:23.110Z,93867.13
2018-02-11T13:19:50.495Z,93865.25
2018-02-11T13:22:17.873Z,93871.58
2018-02-11T13:24:45.261Z,93868.42
2018-02-11T13:27:12.593Z,93849.63
2018-02-11T13:29:40.014Z,93855.38
2018-02-11T13:32:07.362Z,93879.91
2018-02-11T13:34:34.738Z,93860.80
2018-02-11T13:37:02.078Z,93851.80
2018-02-11T13:39:29.478Z,93858.75
2018-02-11T13:41:56.848Z,93853.54
2018-02-11T13:44:24.185Z,93862.89
2018-02-11T13:46:51.538Z,93876.17
2018-02-11T13:49:18.918Z,93859.25
2018-02-11T13:51:46.295Z,93869.84
2018-02-11T13:54:13.634Z,93873.64
2018-02-11T13:56:40.967Z,93872.85
2018-02-11T13:59:08.344Z,93861.84
2018-02-11T14:01:35.721Z,93874.52
2018-02-11T14:04:03.055Z,93876.05
2018-02-11T14:06:30.429Z,93866.94
2018-02-11T14:08:57.800Z,93854.41
2018-02-11T14:11:25.130Z,93881.91
2018-02-11T14:13:52.510Z,93879.61
2018-02-11T14:16:19.935Z,93877.62
2018-02-11T14:18:47.278Z,93874.84
2018-02-11T14:21:14.667Z,93890.17
2018-02-11T14:23:42.050Z,93876.56
2018-02-11T14:26:09.394Z,93887.95
2018-02-11T14:28:36.769Z,93870.94
2018-02-11T14:31:04.142Z,93886.03
2018-02-11T14:33:31.474Z,93880.82
2018-02-11T14:35:58.858Z,93859.19
2018-02-11T14:38:26.239Z,93876.80
2018-02-11T14:40:53.646Z,93895.87
2018-02-11T14:43:21.001Z,93899.27
2018-02-11T14:45:48.339Z,93893.06
2018-02-11T14:48:15.691Z,93891.47
2018-02-11T14:50:43.048Z,93901.53
2018-02-11T14:53:10.386Z,93896.72
2018-02-11T14:55:37.767Z,93909.83
2018-02-11T14:58:05.141Z,93879.17
2018-02-11T15:00:32.478Z,93912.31
2018-02-11T15:02:59.818Z,93900.94
2018-02-11T15:05:27.173Z,93911.00
2018-02-11T15:07:54.511Z,93917.16
2018-02-11T15:10:21.853Z,93919.28
2018-02-11T15:12:49.246Z,93896.19
2018-02-11T15:15:16.638Z,93927.41
2018-02-11T15:17:43.969Z,93934.72
2018-02-11T15:20:11.322Z,93932.47
2018-02-11T15:22:38.658Z,93935.88
2018-02-11T15:25:06.033Z,93934.06
2018-02-11T15:27:33.377Z,93931.23
2018-02-11T15:30:00.710Z,93929.26
2018-02-11T15:32:28.092Z,93948.13
2018-02-11T15:34:55.445Z,93943.30
2018-02-11T15:37:22.795Z,93959.22
2018-02-11T15:39:50.150Z,93941.56
2018-02-11T15:42:17.556Z,93958.94
2018-02-11T15:44:44.901Z,93966.44
2018-02-11T15:47:12.233Z,93935.47
2018-02-11T15:49:39.582Z,93956.57
2018-02-11T15:52:06.971Z,93939.62
2018-02-11T15:54:34.314Z,93964.83
2018-02-11T15:57:01.653Z,93968.77
2018-02-11T15:59:28.992Z,93976.20
2018-02-11T16:01:56.366Z,93977.54
2018-02-11T16:04:23.705Z,93984.52
2018-02-11T16:06:51.085Z,93972.52
2018-02-11T16:09:18.433Z,93979.64
2018-02-11T16:11:45.817Z,93960.25
2018-02-11T16:14:13.162Z,93990.19
2018-02-11T16:16:40.498Z,93991.88
2018-02-11T16:19:07.840Z,93983.66
2018-02-11T16:21:35.189Z,93989.09
2018-02-11T16:24:02.597Z,93965.83
2018-02-11T16:26:29.922Z,93950.30
2018-02-11T16:28:57.255Z,93995.08
2018-02-11T16:31:24.590Z,93995.37
2018-02-11T16:33:51.966Z,93996.31
2018-02-11T16:36:19.357Z,94007.38
2018-02-11T16:38:46.710Z,94001.78
2018-02-11T16:41:14.066Z,93988.69
2018-02-11T16:43:41.442Z,93979.74
2018-02-11T16:46:08.780Z,94012.27
2018-02-11T16:48:36.127Z,94010.44
2018-02-11T16:51:03.457Z,94011.34
2018-02-11T16:53:30.839Z,93971.41
2018-02-11T16:55:58.187Z,94009.34
2018-02-11T16:58:25.573Z,93991.28
2018-02-11T17:00:52.910Z,94023.20
2018-02-11T17:03:20.315Z,94016.31
2018-02-11T17:05:47.775Z,94025.63
2018-02-11T17:08:15.134Z,94026.23
2018-02-11T17:10:42.551Z,94026.23
2018-02-11T17:13:09.895Z,94018.45
2018-02-11T17:15:37.235Z,94027.34
2018-02-11T17:18:04.615Z,94022.25
2018-02-11T17:20:31.977Z,94040.56
2018-02-11T17:22:59.352Z,94031.08
2018-02-11T17:25:26.737Z,94045.64
2018-02-11T17:27:54.131Z,94048.48
2018-02-11T17:30:21.467Z,94027.67
2018-02-11T17:32:48.810Z,94048.27
2018-02-11T17:35:16.176Z,94037.89
2018-02-11T17:37:43.557Z,94044.80
2018-02-11T17:40:10.958Z,94021.42
2018-02-11T17:42:38.302Z,94025.16
2018-02-11T17:45:05.645Z,94047.85
2018-02-11T17:47:32.983Z,94062.08
2018-02-11T17:50:00.380Z,94055.34
2018-02-11T17:52:27.748Z,94058.18
2018-02-11T17:54:55.090Z,94070.92
2018-02-11T17:57:22.431Z,94064.94
2018-02-11T17:59:49.785Z,94065.16
2018-02-11T18:02:17.181Z,94073.31
2018-02-11T18:04:44.524Z,94071.28
2018-02-11T18:07:11.899Z,94075.41
2018-02-11T18:09:39.292Z,94074.53
2018-02-11T18:12:06.645Z,94077.89
2018-02-11T18:14:33.989Z,94080.34
2018-02-11T18:17:01.326Z,94089.58
2018-02-11T18:19:28.667Z,94051.65
2018-02-11T18:21:56.046Z,94091.83
2018-02-11T18:24:23.418Z,94067.69
2018-02-11T18:26:50.797Z,94079.14
2018-02-11T18:29:18.171Z,94093.00
2018-02-11T18:31:45.507Z,94099.17
2018-02-11T18:34:12.889Z,94100.84
2018-02-11T18:36:40.261Z,94096.55
2018-02-11T18:39:07.605Z,94087.42
2018-02-11T18:41:34.986Z,94088.90
2018-02-11T18:44:02.326Z,94088.13
2018-02-11T18:46:29.710Z,94105.23
2018-02-11T18:48:57.052Z,94103.14
2018-02-11T18:51:24.398Z,94101.45
2018-02-11T18:53:51.736Z,94085.96
2018-02-11T18:56:19.150Z,94105.40
2018-02-11T18:58:46.499Z,94105.23
2018-02-11T19:01:13.844Z,94097.77
2018-02-11T19:03:41.190Z,94108.79
2018-02-11T19:06:08.621Z,94097.98
2018-02-11T19:08:35.945Z,94100.19
2018-02-11T19:11:03.330Z,94100.22
2018-02-11T19:13:30.681Z,94105.81
2018-02-11T19:15:58.072Z,94114.30
2018-02-11T19:18:25.419Z,94116.89
2018-02-11T19:20:52.758Z,94116.94
2018-02-11T19:23:20.103Z,94117.81
2018-02-11T19:25:47.442Z,94107.20
2018-02-11T19:28:14.781Z,94122.91
2018-02-11T19:30:42.131Z,94124.25
2018-02-11T19:33:09.489Z,94110.92
2018-02-11T19:35:36.844Z,94103.47
2018-02-11T19:38:04.183Z,94109.84
2018-02-11T19:40:31.520Z,94125.53
2018-02-11T19:42:58.895Z,94119.98
2018-02-11T19:45:26.251Z,94128.95
2018-02-11T19:47:53.630Z,94125.92
2018-02-11T19:50:21.027Z,94103.50
2018-02-11T19:52:48.389Z,94120.53
2018-02-11T19:55:15.744Z,94113.23
2018-02-11T19:57:43.202Z,94132.36
2018-02-11T20:00:10.549Z,94110.29
2018-02-11T20:02:37.885Z,94131.83
2018-02-11T20:05:05.226Z,94132.92
2018-02-11T20:07:32.569Z,94134.05
2018-02-11T20:09:59.941Z,94133.48
2018-02-11T20:12:27.345Z,94108.06
2018-02-11T20:14:54.682Z,94129.59
2018-02-11T20:17:22.024Z,94132.02
2018-02-11T20:19:49.426Z,94095.00
2018-02-11T20:22:16.794Z,94146.26
2018-02-11T20:24:44.184Z,94144.02
2018-02-11T20:27:11.542Z,94128.11
2018-02-11T20:29:38.881Z,94127.25
2018-02-11T20:32:06.219Z,94113.73
2018-02-11T20:34:33.567Z,94148.19
2018-02-11T20:37:00.902Z,94145.93
2018-02-11T20:39:28.260Z,94147.62
2018-02-11T20:41:55.623Z,94139.80
2018-02-11T20:44:22.970Z,94146.18
2018-02-11T20:46:50.319Z,94157.62
2018-02-11T20:49:17.667Z,94159.11
2018-02-11T20:51:45.051Z,94157.23
2018-02-11T20:54:12.400Z,94155.72
2018-02-11T20:56:39.735Z,94150.33
2018-02-11T20:59:07.078Z,94153.52
2018-02-11T21:01:34.409Z,94157.23
2018-02-11T21:04:01.751Z,94136.50
2018-02-11T21:06:29.081Z,94137.95
2018-02-11T21:08:56.430Z,94140.97
2018-02-11T21:11:23.780Z,94125.05
2018-02-11T21:13:51.156Z,94140.38
2018-02-11T21:16:18.540Z,94119.45
2018-02-11T21:18:45.880Z,94114.27
2018-02-11T21:21:13.253Z,94146.00
2018-02-11T21:23:40.625Z,94153.28
2018-02-11T21:26:07.966Z,94126.19
2018-02-11T21:28:35.337Z,94154.23
2018-02-11T21:31:02.678Z,94148.64
2018-02-11T21:33:30.023Z,94145.30
2018-02-11T21:35:57.358Z,94152.77
2018-02-11T21:38:24.697Z,94157.08
2018-02-11T21:40:52.078Z,94136.31
2018-02-11T21:43:19.437Z,94156.53
2018-02-11T21:45:46.874Z,94153.55
2018-02-11T21:48:14.205Z,94145.86
2018-02-11T21:50:41.543Z,94161.20
2018-02-11T21:53:08.896Z,94155.78
2018-02-11T21:55:36.261Z,94161.04
2018-02-11T21:58:03.594Z,94167.24
2018-02-11T22:00:30.926Z,94158.43
2018-02-11T22:02:58.264Z,94158.43
2018-02-11T22:05:25.650Z,94165.92
2018-02-11T22:07:53.053Z,94165.94
2018-02-11T22:10:20.418Z,94171.03
2018-02-11T22:12:47.750Z,94166.33
2018-02-11T22:15:15.133Z,94133.38
2018-02-11T22:17:42.496Z,94153.78
2018-02-11T22:20:09.841Z,94148.55
2018-02-11T22:22:37.235Z,94156.41
2018-02-11T22:25:04.569Z,94153.67
2018-02-11T22:27:31.935Z,94162.21
2018-02-11T22:29:59.304Z,94151.20
2018-02-11T22:32:26.640Z,94157.19
2018-02-11T22:34:54.020Z,94166.94
2018-02-11T22:37:21.358Z,94148.08
2018-02-11T22:39:48.762Z,94158.72
2018-02-11T22:42:16.093Z,94172.53
2018-02-11T22:44:43.469Z,94166.77
2018-02-11T22:47:10.802Z,94149.17
2018-02-11T22:49:38.128Z,94154.98
2018-02-11T22:52:05.591Z,94178.01
2018-02-11T22:54:32.933Z,94171.44
2018-02-11T22:57:00.270Z,94164.13
2018-02-11T22:59:27.633Z,94176.31
2018-02-11T23:01:54.969Z,94167.88
2018-02-11T23:04:22.306Z,94168.66
2018-02-11T23:06:49.673Z,94181.04
2018-02-11T23:09:17.049Z,94181.79
2018-02-11T23:11:44.426Z,94178.01
2018-02-11T23:14:11.834Z,94160.09
2018-02-11T23:16:39.162Z,94170.55
2018-02-11T23:19:06.493Z,94155.05
2018-02-11T23:21:33.893Z,94186.30
2018-02-11T23:24:01.227Z,94180.70
2018-02-11T23:26:28.573Z,94179.94
2018-02-11T23:28:55.917Z,94189.69
2018-02-11T23:31:23.279Z,94189.70
2018-02-11T23:33:50.680Z,94188.56
2018-02-11T23:36:18.082Z,94189.00
2018-02-11T23:38:45.414Z,94197.05
2018-02-11T23:41:12.747Z,94167.84
2018-02-11T23:43:40.085Z,94206.06
2018-02-11T23:46:07.482Z,94197.08
2018-02-11T23:48:34.860Z,94202.16
2018-02-11T23:51:02.233Z,94169.98
2018-02-11T23:53:29.622Z,94182.70
2018-02-11T23:55:56.965Z,94206.89
2018-02-11T23:58:24.294Z,94214.73
